Darstellungsparameter: Aktuell verwendete Einstellungen:
Skalierung der Graphiken ... ?
xyx+y,   Skalierungsfaktor:      Skalierung: Modus: x, Faktor: 1
Darstellungszeitraum ... ?
Vom - - bis: - -   Zeitraum: 29.07.2015 - 04.08.2015
Min/Max/Avg-Anzeige ... ?
Zeige MMA aktuell
Zeige MMA Monat
Zeige MMA alles
Zeige --A aktuell
Zeige --A Monat
Zeige --A alles
Keine MMA-Anzeige
MMA:
Average (ber die Originaldaten)
MMA-Basis: 23.02.2003 - 03.08.2020
Quicknavigation für Darstellung... ?
Tage:      1T, 2T, 3T, 5T -1T -2T -3T -5T +1T +2T +3T +5T
Wochen: 1W, 2W, 3W -1W -2W -3W +1W +2W +3W
Monate: 1M, 3M, 6M -1M -3M -6M +1M +3M +6M
Jahre:    1J, 3J, 5J, 10J -1J -3J -5J -10J +1J +3J +5J +10J
Nutze für die Darstellung ... ?
Originaldaten oder ...
Mittelwerte Minima Maxima auf...
Stundenbasis Tagesbasis Wochenbasis
Monatsbasis Jahresbasis      Datenbasis: Mittelwerte auf Stundenbasis
Darstellen als:
Statistik (Auto) Statistik J:M      Darstellung:
Zur Graphik,    zurück zur Übersicht aller Sensoren.
 
Tabellarische Datenbersicht: ?
 
Sensor: Nr:Datum:Temp:Abs-Feuchte:Windchill:Wind:
Aussen-T/F 1 29-07-2015 03:00:00 14.24 C 9.13 g/m*3 14.24 C 1.6 km/h
2 29-07-2015 05:00:00 12.43333 C 9.09 g/m*3 12.43 C 1.06667 km/h
3 29-07-2015 07:00:00 13.6 C 11.77 g/m*3 13.6 C 8.85 km/h
4 29-07-2015 08:00:00 14.4 C 9.35 g/m*3 14.4 C 10.35 km/h
5 29-07-2015 09:00:00 15.51667 C 9.09 g/m*3 15.52 C 15.16667 km/h
6 29-07-2015 10:00:00 16.95 C 8.7 g/m*3 16.95 C 14.625 km/h
7 29-07-2015 11:00:00 18.475 C 7.95 g/m*3 18.48 C 15.43333 km/h
8 29-07-2015 12:00:00 19.675 C 7.28 g/m*3 19.68 C 14.23333 km/h
9 29-07-2015 13:00:00 20.11667 C 7.4 g/m*3 20.12 C 16.23333 km/h
10 29-07-2015 14:00:00 20.69167 C 7.33 g/m*3 20.69 C 17.7 km/h
11 29-07-2015 15:00:00 21.31667 C 7.12 g/m*3 21.32 C 15.83333 km/h
12 29-07-2015 16:00:00 21.3 C 7.15 g/m*3 21.3 C 17.96667 km/h
13 29-07-2015 17:00:00 20.55833 C 7.65 g/m*3 20.56 C 16.76667 km/h
14 29-07-2015 18:00:00 18.5 C 9.56 g/m*3 18.5 C 10.05833 km/h
15 29-07-2015 19:00:00 19.075 C 8.62 g/m*3 19.08 C 10.73333 km/h
16 29-07-2015 20:00:00 18.60833 C 8.43 g/m*3 18.61 C 8.2 km/h
17 29-07-2015 21:00:00 16.71667 C 8.49 g/m*3 16.72 C 4.01667 km/h
18 29-07-2015 22:00:00 15.25833 C 8.24 g/m*3 15.26 C 2.53333 km/h
19 29-07-2015 23:00:00 13.65 C 8.37 g/m*3 13.65 C 0.53333 km/h
20 30-07-2015 00:00:00 12.24167 C 8.27 g/m*3 12.24 C 0.13333 km/h
21 30-07-2015 01:00:00 11.425 C 8.16 g/m*3 11.43 C 0.26667 km/h
22 30-07-2015 02:00:00 10.975 C 8.17 g/m*3 10.98 C 2.95 km/h
23 30-07-2015 03:00:00 10.44167 C 8.12 g/m*3 10.44 C 1.33333 km/h
24 30-07-2015 04:00:00 10.2 C 8.11 g/m*3 10.2 C 3.2 km/h
25 30-07-2015 05:00:00 10.13333 C 8.15 g/m*3 9.35 C 7.125 km/h
Sensor: Nr:Datum:Temp:Abs-Feuchte:Windchill:Wind:
Aussen-T/F 26 30-07-2015 06:00:00 9.89167 C 8.1 g/m*3 9.89 C 3.2 km/h
27 30-07-2015 07:00:00 10.775 C 8.39 g/m*3 10.49 C 5.5 km/h
28 30-07-2015 08:00:00 12.26667 C 8.73 g/m*3 12.27 C 7.10833 km/h
29 30-07-2015 09:00:00 13.41667 C 8.94 g/m*3 13.42 C 6.425 km/h
30 30-07-2015 10:00:00 15.63333 C 9.28 g/m*3 15.63 C 6.69167 km/h
31 30-07-2015 11:00:00 18.25833 C 9.23 g/m*3 18.26 C 6.96667 km/h
32 30-07-2015 12:00:00 18.975 C 9.09 g/m*3 18.98 C 5.21667 km/h
33 30-07-2015 13:00:00 18.94167 C 9.5 g/m*3 18.94 C 7.11667 km/h
34 30-07-2015 14:00:00 20.34167 C 9.24 g/m*3 20.34 C 9.26667 km/h
35 30-07-2015 15:00:00 17.9 C 9.72 g/m*3 17.9 C 8.6 km/h
36 30-07-2015 16:00:00 16.125 C 10.16 g/m*3 16.13 C 4.95833 km/h
37 30-07-2015 17:00:00 15.05 C 9.75 g/m*3 15.05 C 4.69167 km/h
38 30-07-2015 18:00:00 15.56667 C 9.79 g/m*3 15.57 C 1.73333 km/h
39 30-07-2015 19:00:00 15.85 C 9.92 g/m*3 15.85 C 2.8 km/h
40 30-07-2015 20:00:00 15.48 C 10.59 g/m*3 15.48 C 1.92 km/h
41 31-07-2015 00:00:00 11.15714 C 9.5 g/m*3 11.16 C 1.14286 km/h
42 31-07-2015 01:00:00 10.74286 C 9.26 g/m*3 10.74 C 0 km/h
43 31-07-2015 03:00:00 10.35 C 9.13 g/m*3 10.35 C 0 km/h
44 31-07-2015 04:00:00 10.55833 C 9.25 g/m*3 10.56 C 0.13333 km/h
45 31-07-2015 05:00:00 10.7 C 9.33 g/m*3 10.7 C 0 km/h
46 31-07-2015 07:00:00 10.79091 C 9.38 g/m*3 10.79 C 0 km/h
47 31-07-2015 08:00:00 11.96667 C 9.86 g/m*3 11.97 C 2 km/h
48 31-07-2015 09:00:00 13.53333 C 9.93 g/m*3 13.53 C 5.20833 km/h
49 31-07-2015 10:00:00 15.05 C 9.69 g/m*3 15.05 C 6.85833 km/h
50 31-07-2015 11:00:00 17.075 C 9.37 g/m*3 17.08 C 7.39167 km/h
Sensor: Nr:Datum:Temp:Abs-Feuchte:Windchill:Wind:
Aussen-T/F 51 31-07-2015 12:00:00 18.68333 C 9.25 g/m*3 18.68 C 7.65833 km/h
52 31-07-2015 13:00:00 20.1 C 8.82 g/m*3 20.1 C 7.24167 km/h
53 31-07-2015 14:00:00 21.425 C 8.32 g/m*3 21.43 C 10.49167 km/h
54 31-07-2015 15:00:00 22.5 C 8.01 g/m*3 22.5 C 9.68333 km/h
55 31-07-2015 16:00:00 22.525 C 7.93 g/m*3 22.53 C 9.15 km/h
56 31-07-2015 17:00:00 23.28333 C 7.89 g/m*3 23.28 C 8.73333 km/h
57 31-07-2015 18:00:00 23.70833 C 7.85 g/m*3 23.71 C 9.15 km/h
58 31-07-2015 19:00:00 22.525 C 7.92 g/m*3 22.53 C 10.49167 km/h
59 31-07-2015 20:00:00 20.63333 C 8.19 g/m*3 20.63 C 4.825 km/h
60 31-07-2015 21:00:00 16.63333 C 8.27 g/m*3 16.63 C 0.53333 km/h
61 31-07-2015 22:00:00 14.91667 C 8.8 g/m*3 14.92 C 0.8 km/h
62 31-07-2015 23:00:00 13.79167 C 8.52 g/m*3 13.79 C 0 km/h
63 01-08-2015 00:00:00 13.20833 C 8.53 g/m*3 13.21 C 0 km/h
64 01-08-2015 01:00:00 13.1 C 8.57 g/m*3 13.1 C 0 km/h
65 01-08-2015 02:00:00 12.85 C 8.46 g/m*3 12.85 C 0 km/h
66 01-08-2015 03:00:00 12.75833 C 8.3 g/m*3 12.76 C 0 km/h
67 01-08-2015 04:00:00 12.66667 C 8.37 g/m*3 12.67 C 0 km/h
68 01-08-2015 05:00:00 12.68333 C 8.43 g/m*3 12.68 C 0 km/h
69 01-08-2015 06:00:00 12.21667 C 8.43 g/m*3 12.22 C 0 km/h
70 01-08-2015 07:00:00 12.79167 C 9.04 g/m*3 12.79 C 0 km/h
71 01-08-2015 08:00:00 14.34167 C 9.25 g/m*3 14.34 C 0.13333 km/h
72 01-08-2015 09:00:00 15.43333 C 9.28 g/m*3 15.43 C 1.46667 km/h
73 01-08-2015 10:00:00 17.15833 C 9.4 g/m*3 17.16 C 3.6 km/h
74 01-08-2015 11:00:00 20.44167 C 9.65 g/m*3 20.44 C 5.35 km/h
75 01-08-2015 12:00:00 23.1 C 9.66 g/m*3 23.1 C 6.025 km/h
Sensor: Nr:Datum:Temp:Abs-Feuchte:Windchill:Wind:
Aussen-T/F 76 01-08-2015 13:00:00 25.25833 C 9.46 g/m*3 25.26 C 8.06667 km/h
77 01-08-2015 14:00:00 26.96667 C 9.5 g/m*3 26.97 C 8.875 km/h
78 01-08-2015 15:00:00 28.00833 C 9.43 g/m*3 28.01 C 8.625 km/h
79 01-08-2015 16:00:00 28.125 C 9.22 g/m*3 28.13 C 6.98333 km/h
80 01-08-2015 17:00:00 27.60833 C 9.32 g/m*3 27.61 C 5.89167 km/h
81 01-08-2015 18:00:00 26.31667 C 10.1 g/m*3 26.32 C 6.03333 km/h
82 01-08-2015 19:00:00 26.99167 C 9.69 g/m*3 26.99 C 9.80833 km/h
83 01-08-2015 20:00:00 23.00833 C 10.25 g/m*3 23.01 C 2.675 km/h
84 01-08-2015 21:00:00 20.3 C 10.39 g/m*3 20.3 C 0.8 km/h
85 01-08-2015 22:00:00 18.6 C 10.27 g/m*3 18.6 C 1.06667 km/h
86 01-08-2015 23:00:00 17.85 C 10.12 g/m*3 17.85 C 1.06667 km/h
87 02-08-2015 00:00:00 17.325 C 10.13 g/m*3 17.33 C 0.93333 km/h
88 02-08-2015 01:00:00 16.28333 C 9.99 g/m*3 16.28 C 0.26667 km/h
89 02-08-2015 02:00:00 15.575 C 9.89 g/m*3 15.58 C 0.8 km/h
90 02-08-2015 03:00:00 14.49167 C 9.85 g/m*3 14.49 C 0.53333 km/h
91 02-08-2015 04:00:00 13.5 C 9.74 g/m*3 13.5 C 0 km/h
92 02-08-2015 05:00:00 12.525 C 9.55 g/m*3 12.53 C 0 km/h
93 02-08-2015 06:00:00 12.025 C 9.46 g/m*3 12.03 C 0 km/h
94 02-08-2015 07:00:00 12.33333 C 9.68 g/m*3 12.33 C 0.13333 km/h
95 02-08-2015 08:00:00 13.51667 C 10.26 g/m*3 13.52 C 0 km/h
96 02-08-2015 09:00:00 15.48333 C 10.85 g/m*3 15.48 C 0 km/h
97 02-08-2015 10:00:00 17.90833 C 11.22 g/m*3 17.91 C 1.73333 km/h
98 02-08-2015 11:00:00 22.45 C 11.49 g/m*3 22.45 C 2.66667 km/h
99 02-08-2015 12:00:00 25.24167 C 11.45 g/m*3 25.24 C 5.88333 km/h
100 02-08-2015 13:00:00 27.275 C 11.21 g/m*3 27.28 C 7.375 km/h
Sensor: Nr:Datum:Temp:Abs-Feuchte:Windchill:Wind:
Aussen-T/F 101 02-08-2015 14:00:00 28.58333 C 11.02 g/m*3 28.58 C 7.11667 km/h
102 02-08-2015 15:00:00 29.575 C 10.72 g/m*3 29.58 C 7.525 km/h
103 02-08-2015 16:00:00 30.74167 C 10.39 g/m*3 30.74 C 10.225 km/h
104 02-08-2015 17:00:00 30.49167 C 10.38 g/m*3 30.49 C 9.26667 km/h
105 02-08-2015 18:00:00 29.90833 C 10.36 g/m*3 29.91 C 7.10833 km/h
106 02-08-2015 19:00:00 28.9 C 10.71 g/m*3 28.9 C 6.725 km/h
107 02-08-2015 20:00:00 25.39167 C 12.45 g/m*3 25.39 C 0.26667 km/h
108 02-08-2015 21:00:00 21.51667 C 10.68 g/m*3 21.52 C 1.6 km/h
109 02-08-2015 22:00:00 20.38333 C 10.18 g/m*3 20.38 C 0.93333 km/h
110 02-08-2015 23:00:00 18.90833 C 10.55 g/m*3 18.91 C 0 km/h
111 03-08-2015 00:00:00 17.80833 C 10.45 g/m*3 17.81 C 0.13333 km/h
112 03-08-2015 01:00:00 16.69167 C 10.33 g/m*3 16.69 C 0 km/h
113 03-08-2015 02:00:00 15.60833 C 10.27 g/m*3 15.61 C 0 km/h
114 03-08-2015 03:00:00 14.875 C 10.13 g/m*3 14.88 C 0 km/h
115 03-08-2015 04:00:00 14.225 C 10 g/m*3 14.23 C 0 km/h
116 03-08-2015 05:00:00 13.70833 C 9.94 g/m*3 13.71 C 0 km/h
117 03-08-2015 06:00:00 13.41667 C 9.91 g/m*3 13.42 C 0 km/h
118 03-08-2015 07:00:00 13.61667 C 10.2 g/m*3 13.62 C 0 km/h
119 03-08-2015 08:00:00 14.88333 C 10.79 g/m*3 14.88 C 0 km/h
120 03-08-2015 09:00:00 17.125 C 11.48 g/m*3 17.13 C 0 km/h
121 03-08-2015 10:00:00 19.575 C 12.46 g/m*3 19.58 C 0 km/h
122 03-08-2015 11:00:00 25.125 C 12.29 g/m*3 25.13 C 2.275 km/h
123 03-08-2015 12:00:00 30.45 C 10.64 g/m*3 30.45 C 7.8 km/h
124 03-08-2015 13:00:00 31.95 C 10.66 g/m*3 31.95 C 8.31667 km/h
125 03-08-2015 14:00:00 33.08333 C 10.13 g/m*3 33.08 C 8.98333 km/h
Sensor: Nr:Datum:Temp:Abs-Feuchte:Windchill:Wind:
Aussen-T/F 126 03-08-2015 15:00:00 33.99167 C 9.97 g/m*3 33.99 C 8.86667 km/h
127 03-08-2015 16:00:00 35.05 C 10.54 g/m*3 35.05 C 6.29167 km/h
128 03-08-2015 17:00:00 35.63333 C 10.04 g/m*3 35.63 C 7.93333 km/h
129 03-08-2015 18:00:00 34.86667 C 9.98 g/m*3 34.87 C 6.175 km/h
130 03-08-2015 19:00:00 29.35833 C 12.25 g/m*3 29.36 C 0.8 km/h
131 03-08-2015 20:00:00 25.85833 C 11.63 g/m*3 25.86 C 1.06667 km/h
132 03-08-2015 21:00:00 23.81 C 11.49 g/m*3 23.81 C 0.16 km/h
133 03-08-2015 22:00:00 23.28571 C 11.7 g/m*3 23.29 C 0.91429 km/h
134 03-08-2015 23:00:00 22.75833 C 11.84 g/m*3 22.76 C 0.66667 km/h
135 04-08-2015 00:00:00 21.81667 C 12.1 g/m*3 21.82 C 0 km/h
136 04-08-2015 01:00:00 19.275 C 12.01 g/m*3 19.27 C 0 km/h
137 04-08-2015 02:00:00 18.09167 C 11.66 g/m*3 18.09 C 0 km/h
138 04-08-2015 03:00:00 17.3 C 11.44 g/m*3 17.3 C 0 km/h
139 04-08-2015 04:00:00 16.74167 C 11.37 g/m*3 16.74 C 0 km/h
140 04-08-2015 05:00:00 16.24167 C 11.39 g/m*3 16.24 C 0 km/h
141 04-08-2015 06:00:00 16.075 C 11.55 g/m*3 16.08 C 0 km/h
142 04-08-2015 07:00:00 17.00833 C 12.11 g/m*3 17.01 C 0 km/h
143 04-08-2015 08:00:00 19.69167 C 12.76 g/m*3 19.69 C 0.8 km/h
144 04-08-2015 09:00:00 21.90833 C 13.43 g/m*3 21.91 C 1.60833 km/h
145 04-08-2015 10:00:00 23.99167 C 13.16 g/m*3 23.99 C 6.3 km/h
146 04-08-2015 11:00:00 24.10833 C 13.17 g/m*3 24.11 C 11.275 km/h
147 04-08-2015 12:00:00 21.38333 C 14.92 g/m*3 21.38 C 3.225 km/h
148 04-08-2015 13:00:00 19.75833 C 15.59 g/m*3 19.76 C 0.53333 km/h
149 04-08-2015 14:00:00 20.55 C 16.02 g/m*3 20.55 C 3.60833 km/h
150 04-08-2015 15:00:00 21.60833 C 16.32 g/m*3 21.61 C 6.31667 km/h
Sensor: Nr:Datum:Temp:Abs-Feuchte:Windchill:Wind:
Aussen-T/F 151 04-08-2015 16:00:00 21.08333 C 16.69 g/m*3 21.08 C 0.13333 km/h
152 04-08-2015 17:00:00 18.89167 C 14.44 g/m*3 18.89 C 9.55 km/h
153 04-08-2015 18:00:00 18.24167 C 13.95 g/m*3 18.24 C 6.16667 km/h
154 04-08-2015 19:00:00 18.6 C 14.1 g/m*3 18.6 C 1.6 km/h
155 04-08-2015 20:00:00 18.15833 C 14.08 g/m*3 18.16 C 0 km/h
156 04-08-2015 21:00:00 16.35 C 12.89 g/m*3 16.35 C 0.26667 km/h
157 04-08-2015 22:00:00 15.31667 C 12.3 g/m*3 15.32 C 0 km/h
158 04-08-2015 23:00:00 14.6 C 11.88 g/m*3 14.6 C 0 km/h

Maximal/Minimal-Werte vom 23.02.2003 - 03.08.2020

Sensor Min Max Avg
Temp
(Aussen-T/F)
-16.4 °C
20-12-2009  01:30:01
40.4 °C
25-07-2019  16:20:00
11.23 °C

Die Daten stammen von einer Davis Vantage Pro 2 Wetter-Station und werden unter Linux mit der Software wview2wettercgi und aufbereitet. Alle Angaben erfolgen ohne Gewähr für ihre Vollständigkeit oder Richtigkeit.
Kontakt: Rainer Krienke krienke@uni-koblenz.de . Meine Webseiten an der Uni Koblenz oder privat.
Version: $Revision: 0.78 $